createdAt,value
2018-08-31T13:18:40.059Z,5.00
2018-08-31T13:23:43.294Z,6.63
2018-08-31T13:28:46.484Z,6.43
2018-08-31T13:33:49.686Z,3.63
2018-08-31T13:38:52.825Z,4.63
2018-08-31T13:43:56.042Z,4.65
2018-08-31T13:48:59.219Z,4.55
2018-08-31T13:54:02.537Z,5.42
2018-08-31T13:59:05.841Z,4.50
2018-08-31T14:04:09.045Z,3.60
2018-08-31T14:09:12.283Z,4.57
2018-08-31T14:14:15.566Z,3.52
2018-08-31T14:19:18.758Z,4.17
2018-08-31T14:24:21.954Z,4.12
2018-08-31T14:29:25.230Z,4.37
2018-08-31T14:34:28.438Z,4.75
2018-08-31T14:39:31.630Z,4.05
2018-08-31T14:44:34.858Z,5.00
2018-08-31T14:49:38.213Z,5.10
2018-08-31T14:54:41.351Z,4.55
2018-08-31T14:59:44.586Z,3.00
2018-08-31T15:04:47.876Z,5.12
2018-08-31T15:09:51.556Z,3.75
2018-08-31T15:14:54.799Z,3.92
2018-08-31T15:19:58.022Z,5.17
2018-08-31T15:25:01.419Z,3.22
2018-08-31T15:30:05.375Z,4.40
2018-08-31T15:35:08.656Z,4.35
2018-08-31T15:40:11.881Z,6.90
2018-08-31T15:45:15.190Z,4.60
2018-08-31T15:50:18.390Z,4.57
2018-08-31T15:55:21.602Z,5.00
2018-08-31T16:00:24.811Z,4.08
2018-08-31T16:05:28.014Z,5.55
2018-08-31T16:10:31.491Z,4.12
2018-08-31T16:15:34.699Z,4.67
2018-08-31T16:20:37.986Z,2.47
2018-08-31T16:25:41.163Z,4.25
2018-08-31T16:30:44.379Z,3.60
2018-08-31T16:35:47.566Z,5.58
2018-08-31T16:40:50.962Z,4.08
2018-08-31T16:45:54.185Z,4.45
2018-08-31T16:50:57.390Z,6.30
2018-08-31T16:56:00.635Z,5.30
2018-08-31T17:01:03.839Z,7.75
2018-08-31T17:06:07.066Z,4.08
2018-08-31T17:11:10.285Z,5.97
2018-08-31T17:16:13.497Z,3.20
2018-08-31T17:21:16.770Z,4.05
2018-08-31T17:26:25.612Z,4.67
2018-08-31T17:31:34.142Z,5.70
2018-08-31T17:36:42.918Z,7.20
2018-08-31T17:41:46.133Z,4.87
2018-08-31T17:46:49.323Z,4.50
2018-08-31T17:51:52.569Z,3.77
2018-08-31T17:56:55.763Z,4.42
2018-08-31T18:01:59.012Z,3.77
2018-08-31T18:07:02.231Z,4.22
2018-08-31T18:12:05.459Z,2.90
2018-08-31T18:17:08.883Z,5.27
2018-08-31T18:22:12.124Z,5.25
2018-08-31T18:27:15.328Z,5.83
2018-08-31T18:32:18.530Z,5.33
2018-08-31T18:37:21.743Z,5.08
2018-08-31T18:42:24.982Z,5.17
2018-08-31T18:47:28.174Z,6.17
2018-08-31T18:52:31.490Z,4.03
2018-08-31T18:57:34.622Z,5.08
2018-08-31T19:02:37.835Z,3.83
2018-08-31T19:07:41.350Z,5.58
2018-08-31T19:12:44.569Z,5.40
2018-08-31T19:17:48.236Z,5.78
2018-08-31T19:22:51.482Z,4.40
2018-08-31T19:27:54.744Z,6.28
2018-08-31T19:32:57.934Z,5.95
2018-08-31T19:38:01.123Z,5.45
2018-08-31T19:43:04.438Z,6.00
2018-08-31T19:48:07.659Z,6.63
2018-08-31T19:53:10.862Z,6.03
2018-08-31T19:58:14.030Z,6.95
2018-08-31T20:03:17.226Z,7.00
2018-08-31T20:08:20.416Z,5.92
2018-08-31T20:13:23.593Z,5.87
2018-08-31T20:18:26.734Z,8.23
2018-08-31T20:23:29.903Z,5.80
2018-08-31T20:28:33.070Z,4.53
2018-08-31T20:33:36.246Z,5.53
2018-08-31T20:38:39.413Z,5.17
2018-08-31T20:43:42.586Z,6.15
2018-08-31T20:48:45.762Z,5.62
2018-08-31T20:53:49.399Z,6.03
2018-08-31T20:58:52.667Z,6.40
2018-08-31T21:03:55.857Z,5.37
2018-08-31T21:08:59.078Z,6.40
2018-08-31T21:14:02.270Z,6.58
2018-08-31T21:19:05.527Z,5.87
2018-08-31T21:24:08.703Z,4.33
2018-08-31T21:29:11.875Z,5.67
2018-08-31T21:34:15.150Z,7.47
2018-08-31T21:39:18.250Z,8.23
2018-08-31T21:44:21.432Z,8.18
2018-08-31T21:49:24.672Z,6.87
2018-08-31T21:54:28.170Z,6.05
2018-08-31T21:59:31.382Z,6.20
2018-08-31T22:04:34.612Z,6.97
2018-08-31T22:09:37.822Z,5.85
2018-08-31T22:14:41.027Z,6.10
2018-08-31T22:19:44.255Z,6.10
2018-08-31T22:24:47.514Z,9.33
2018-08-31T22:29:50.722Z,7.75
2018-08-31T22:34:53.956Z,6.72
2018-08-31T22:39:57.167Z,6.25
2018-08-31T22:45:00.397Z,8.15
2018-08-31T22:50:03.615Z,7.30
2018-08-31T22:55:06.966Z,8.65
2018-08-31T23:00:10.138Z,8.90
2018-08-31T23:05:13.295Z,9.17
2018-08-31T23:10:16.495Z,8.98
2018-08-31T23:15:19.681Z,7.65
2018-08-31T23:20:22.851Z,6.70
2018-08-31T23:25:31.413Z,9.60
2018-08-31T23:30:34.578Z,7.10
2018-08-31T23:35:37.747Z,5.67
2018-08-31T23:40:40.921Z,8.33
2018-08-31T23:45:44.086Z,8.88
2018-08-31T23:50:47.271Z,6.90
2018-08-31T23:55:50.446Z,8.55
